createdAt,value
2023-04-18T00:01:21.421Z,8.60
2023-04-18T00:03:50.626Z,8.60
2023-04-18T00:06:19.357Z,8.50
2023-04-18T00:08:47.382Z,8.50
2023-04-18T00:11:15.393Z,8.50
2023-04-18T00:13:43.362Z,8.50
2023-04-18T00:16:13.284Z,8.50
2023-04-18T00:18:42.748Z,8.50
2023-04-18T00:21:10.815Z,8.40
2023-04-18T00:23:39.743Z,8.40
2023-04-18T00:26:07.805Z,8.40
2023-04-18T00:28:35.916Z,8.40
2023-04-18T00:31:04.269Z,8.30
2023-04-18T00:33:32.572Z,8.40
2023-04-18T00:36:02.217Z,8.30
2023-04-18T00:38:30.370Z,8.30
2023-04-18T00:40:58.669Z,8.30
2023-04-18T00:43:26.982Z,8.30
2023-04-18T00:45:57.082Z,8.30
2023-04-18T00:48:25.715Z,8.30
2023-04-18T00:50:54.879Z,8.40
2023-04-18T00:53:24.889Z,8.40
2023-04-18T00:55:53.528Z,8.40
2023-04-18T00:58:21.910Z,8.40
2023-04-18T01:00:50.176Z,8.50
2023-04-18T01:03:19.851Z,8.50
2023-04-18T01:05:48.137Z,8.50
2023-04-18T01:08:16.833Z,8.50
2023-04-18T01:10:46.716Z,8.50
2023-04-18T01:13:16.128Z,8.50
2023-04-18T01:15:45.514Z,8.60
2023-04-18T01:18:17.200Z,8.60
2023-04-18T01:20:47.760Z,8.60
2023-04-18T01:23:17.056Z,8.70
2023-04-18T01:25:47.661Z,8.70
2023-04-18T01:28:16.041Z,8.70
2023-04-18T01:30:44.197Z,8.80
2023-04-18T01:33:12.362Z,8.70
2023-04-18T01:35:40.454Z,8.80
2023-04-18T01:38:10.265Z,8.70
2023-04-18T01:40:38.446Z,8.70
2023-04-18T01:43:07.902Z,8.70
2023-04-18T01:45:35.963Z,8.70
2023-04-18T01:48:04.107Z,8.70
2023-04-18T01:50:32.368Z,8.70
2023-04-18T01:53:00.423Z,8.70
2023-04-18T01:55:28.401Z,8.70
2023-04-18T01:57:56.537Z,8.60
2023-04-18T02:00:26.256Z,8.60
2023-04-18T02:02:54.549Z,8.70
2023-04-18T02:05:22.739Z,8.70
2023-04-18T02:07:50.719Z,8.80
2023-04-18T02:10:18.977Z,8.80
2023-04-18T02:12:47.081Z,8.70
2023-04-18T02:15:15.121Z,8.70
2023-04-18T02:17:45.641Z,8.80
2023-04-18T02:20:15.752Z,8.70
2023-04-18T02:22:44.661Z,8.70
2023-04-18T02:25:12.647Z,8.80
2023-04-18T02:27:40.908Z,8.80
2023-04-18T02:30:09.841Z,8.80
2023-04-18T02:32:38.004Z,8.80
2023-04-18T02:35:08.361Z,8.80
2023-04-18T02:37:36.317Z,8.70
2023-04-18T02:40:05.681Z,8.70
2023-04-18T02:42:33.753Z,8.70
2023-04-18T02:45:01.795Z,8.70
2023-04-18T02:47:33.304Z,8.70
2023-04-18T02:50:03.530Z,8.70
2023-04-18T02:52:32.910Z,8.70
2023-04-18T02:55:00.871Z,8.70
2023-04-18T02:57:28.863Z,8.70
2023-04-18T02:59:56.863Z,8.60
2023-04-18T03:02:25.092Z,8.60
2023-04-18T03:04:53.220Z,8.60
2023-04-18T03:07:21.265Z,8.60
2023-04-18T03:09:52.181Z,8.60
2023-04-18T03:12:20.332Z,8.60
2023-04-18T03:14:48.425Z,8.60
2023-04-18T03:17:16.524Z,8.60
2023-04-18T03:19:44.966Z,8.60
2023-04-18T03:22:14.002Z,8.60
2023-04-18T03:24:42.063Z,8.60
2023-04-18T03:27:11.498Z,8.70
2023-04-18T03:29:39.637Z,8.70
2023-04-18T03:32:07.635Z,8.70
2023-04-18T03:34:36.094Z,8.70
2023-04-18T03:37:04.093Z,8.70
2023-04-18T03:39:32.029Z,8.70
2023-04-18T03:41:59.993Z,8.60
2023-04-18T03:44:29.330Z,8.60
2023-04-18T03:46:57.396Z,8.60
2023-04-18T03:49:25.429Z,8.60
2023-04-18T03:51:53.393Z,8.70
2023-04-18T03:54:21.449Z,8.60
2023-04-18T03:56:49.592Z,8.60
2023-04-18T03:59:17.671Z,8.60
2023-04-18T04:01:47.456Z,8.60
2023-04-18T04:04:16.062Z,8.60
2023-04-18T04:06:44.476Z,8.50
2023-04-18T04:09:12.473Z,8.50
2023-04-18T04:11:40.715Z,8.50
2023-04-18T04:14:08.693Z,8.50
2023-04-18T04:16:36.807Z,8.50
2023-04-18T04:19:06.208Z,8.60
2023-04-18T04:21:34.220Z,8.60
2023-04-18T04:24:02.755Z,8.60
2023-04-18T04:26:31.733Z,8.60
2023-04-18T04:28:59.805Z,8.60
2023-04-18T04:31:28.765Z,8.60
2023-04-18T04:33:56.765Z,8.50
2023-04-18T04:36:27.269Z,8.60
2023-04-18T04:38:55.451Z,8.60
2023-04-18T04:41:24.533Z,8.60
2023-04-18T04:43:53.150Z,8.60
2023-04-18T04:46:21.375Z,8.50
2023-04-18T04:48:49.674Z,8.50
2023-04-18T04:51:17.691Z,8.50
2023-04-18T04:53:47.137Z,8.50
2023-04-18T04:56:16.827Z,8.40
2023-04-18T04:58:45.204Z,8.40
2023-04-18T05:01:13.247Z,8.50
2023-04-18T05:03:41.413Z,8.40
2023-04-18T05:06:09.715Z,8.40
2023-04-18T05:08:37.770Z,8.40
2023-04-18T05:11:07.243Z,8.50
2023-04-18T05:13:35.287Z,8.50
2023-04-18T05:16:03.316Z,8.50
2023-04-18T05:18:33.075Z,8.50
2023-04-18T05:21:02.951Z,8.50
2023-04-18T05:23:31.404Z,8.50
2023-04-18T05:25:59.506Z,8.50
2023-04-18T05:28:29.033Z,8.50
2023-04-18T05:31:01.352Z,8.50
2023-04-18T05:33:29.796Z,8.50
2023-04-18T05:35:58.557Z,8.50
2023-04-18T05:38:26.992Z,8.50
2023-04-18T05:40:55.695Z,8.40
2023-04-18T05:43:24.545Z,8.50
2023-04-18T05:45:54.787Z,8.60
2023-04-18T05:48:25.154Z,8.60
2023-04-18T05:50:53.248Z,8.70
2023-04-18T05:53:21.410Z,8.70
2023-04-18T05:55:50.184Z,8.70
2023-04-18T05:58:18.159Z,8.70
2023-04-18T06:00:48.050Z,8.70
2023-04-18T06:03:17.590Z,8.80
2023-04-18T06:05:46.142Z,8.80
2023-04-18T06:08:14.237Z,8.70
2023-04-18T06:10:42.210Z,8.70
2023-04-18T06:13:10.247Z,8.70
2023-04-18T06:15:38.371Z,8.80
2023-04-18T06:18:06.772Z,8.90
2023-04-18T06:20:36.198Z,9.00
2023-04-18T06:23:04.127Z,9.10
2023-04-18T06:25:32.195Z,9.20
2023-04-18T06:28:01.938Z,9.30
2023-04-18T06:30:30.106Z,9.40
2023-04-18T06:32:58.268Z,9.50
2023-04-18T06:35:26.792Z,9.60
2023-04-18T06:37:56.284Z,9.70
2023-04-18T06:40:24.432Z,9.70
2023-04-18T06:42:52.488Z,9.70
2023-04-18T06:45:20.901Z,9.90
2023-04-18T06:47:49.771Z,10.00
2023-04-18T06:50:18.331Z,10.10
2023-04-18T06:52:46.352Z,10.20
2023-04-18T06:55:15.833Z,10.20
2023-04-18T06:57:44.737Z,10.30
2023-04-18T07:00:13.512Z,10.40
2023-04-18T07:02:42.231Z,10.40
2023-04-18T07:05:10.904Z,10.50
2023-04-18T07:07:39.520Z,10.50
2023-04-18T07:10:09.834Z,10.60
2023-04-18T07:12:39.318Z,10.60
2023-04-18T07:15:08.504Z,10.60
2023-04-18T07:17:37.044Z,10.50
2023-04-18T07:20:05.769Z,10.40
2023-04-18T07:22:33.788Z,10.30
2023-04-18T07:25:01.798Z,10.30
2023-04-18T07:27:29.763Z,10.30
2023-04-18T07:29:59.157Z,10.30
2023-04-18T07:32:27.195Z,10.30
2023-04-18T07:34:55.441Z,10.30
2023-04-18T07:37:23.489Z,10.40
2023-04-18T07:39:52.629Z,10.40
2023-04-18T07:42:20.652Z,10.60
2023-04-18T07:44:49.512Z,10.70
2023-04-18T07:47:22.266Z,10.80
2023-04-18T07:49:50.731Z,11.00
2023-04-18T07:52:19.004Z,11.10
2023-04-18T07:54:47.101Z,11.20
2023-04-18T07:57:15.118Z,11.40
2023-04-18T07:59:45.184Z,11.50
2023-04-18T08:02:13.301Z,11.60
2023-04-18T08:04:42.849Z,11.70
2023-04-18T08:07:11.187Z,11.80
2023-04-18T08:09:39.181Z,11.70
2023-04-18T08:12:07.447Z,11.70
2023-04-18T08:14:35.569Z,11.60
2023-04-18T08:17:03.741Z,11.50
2023-04-18T08:19:32.945Z,11.50
2023-04-18T08:22:11.084Z,11.50
2023-04-18T08:24:41.671Z,11.40
2023-04-18T08:27:14.481Z,11.30
2023-04-18T08:29:42.583Z,11.40
2023-04-18T08:32:11.230Z,11.40
2023-04-18T08:34:39.498Z,11.40
2023-04-18T08:37:08.952Z,11.50
2023-04-18T08:39:36.967Z,11.60
2023-04-18T08:42:07.590Z,11.70
2023-04-18T08:44:35.837Z,11.80
2023-04-18T08:47:03.861Z,11.90
2023-04-18T08:49:32.305Z,12.00
2023-04-18T08:52:02.570Z,12.00
2023-04-18T08:54:32.749Z,11.90
2023-04-18T08:57:07.425Z,11.90
2023-04-18T08:59:35.841Z,11.90
2023-04-18T09:02:05.395Z,12.00
2023-04-18T09:04:35.458Z,12.10
2023-04-18T09:07:04.296Z,12.30
2023-04-18T09:09:47.696Z,12.40
2023-04-18T09:12:18.327Z,12.60
2023-04-18T09:14:48.016Z,12.80
2023-04-18T09:17:18.240Z,13.00
2023-04-18T09:19:50.286Z,13.10
2023-04-18T09:22:18.939Z,13.10
2023-04-18T09:24:54.264Z,13.20
2023-04-18T09:27:23.358Z,13.30
2023-04-18T09:29:52.620Z,13.40
2023-04-18T09:32:24.957Z,13.60
2023-04-18T09:34:58.270Z,13.60
2023-04-18T09:37:27.354Z,13.70
2023-04-18T09:39:57.350Z,13.80
2023-04-18T09:42:28.169Z,13.80
2023-04-18T09:45:02.423Z,13.80
2023-04-18T09:47:30.898Z,13.90
2023-04-18T09:49:59.160Z,14.00
2023-04-18T09:52:27.197Z,14.10
2023-04-18T09:55:01.321Z,14.30
2023-04-18T09:57:31.026Z,14.40
2023-04-18T10:00:10.636Z,14.60
2023-04-18T10:02:55.931Z,14.70
2023-04-18T10:05:26.867Z,14.80
2023-04-18T10:07:55.972Z,14.70
2023-04-18T10:10:25.977Z,14.70
2023-04-18T10:12:56.119Z,14.80
2023-04-18T10:15:25.530Z,14.80
2023-04-18T10:18:04.608Z,14.90
2023-04-18T10:20:35.824Z,15.00
2023-04-18T10:23:38.278Z,15.20
2023-04-18T10:26:08.164Z,15.30
2023-04-18T10:28:54.505Z,15.30
2023-04-18T10:31:23.834Z,15.40
2023-04-18T10:36:28.181Z,15.40
2023-04-18T10:39:00.928Z,15.50
2023-04-18T10:41:31.034Z,15.50
2023-04-18T10:44:19.513Z,15.60
2023-04-18T10:47:32.864Z,15.60
2023-04-18T10:50:06.132Z,15.60
2023-04-18T10:52:35.076Z,15.60
2023-04-18T10:55:25.275Z,15.50
2023-04-18T10:57:56.525Z,15.50
2023-04-18T11:00:24.947Z,15.50
2023-04-18T11:02:59.214Z,15.50
2023-04-18T11:05:28.936Z,15.60
2023-04-18T11:07:57.090Z,15.70
2023-04-18T11:10:26.586Z,15.70
2023-04-18T11:12:56.382Z,15.80
2023-04-18T11:15:26.291Z,15.80
2023-04-18T11:17:59.672Z,15.80
2023-04-18T11:20:28.330Z,15.90
2023-04-18T11:22:58.201Z,16.00
2023-04-18T11:25:28.254Z,16.10
2023-04-18T11:28:00.897Z,16.20
2023-04-18T11:30:31.330Z,16.30
2023-04-18T11:32:59.355Z,16.40
2023-04-18T11:35:27.839Z,16.50
2023-04-18T11:37:56.194Z,16.40
2023-04-18T11:40:24.444Z,16.40
2023-04-18T11:42:55.440Z,16.40
2023-04-18T11:45:24.767Z,16.30
2023-04-18T11:47:58.068Z,16.30
2023-04-18T11:50:26.662Z,16.40
2023-04-18T11:52:55.856Z,16.40
2023-04-18T11:55:27.125Z,16.30
2023-04-18T11:57:56.413Z,16.20
2023-04-18T12:00:35.257Z,16.20
2023-04-18T12:03:05.295Z,16.20
2023-04-18T12:05:35.090Z,16.10
2023-04-18T12:08:11.281Z,16.20
2023-04-18T12:10:39.989Z,16.30
2023-04-18T12:13:09.385Z,16.30
2023-04-18T12:15:41.488Z,16.50
2023-04-18T12:18:09.641Z,16.60
2023-04-18T12:20:38.814Z,16.70
2023-04-18T12:23:07.976Z,16.70
2023-04-18T12:25:36.553Z,16.80
2023-04-18T12:28:14.774Z,16.70
2023-04-18T12:30:44.277Z,16.80
2023-04-18T12:33:12.703Z,16.90
2023-04-18T12:35:41.145Z,16.90
2023-04-18T12:38:09.142Z,16.80
2023-04-18T12:40:40.423Z,16.70
2023-04-18T12:43:08.961Z,16.60
2023-04-18T12:45:36.963Z,16.50
2023-04-18T12:48:06.671Z,16.50
2023-04-18T12:50:35.000Z,16.50
2023-04-18T12:53:03.460Z,16.60
2023-04-18T12:55:31.562Z,16.60
2023-04-18T12:57:59.609Z,16.70
2023-04-18T13:00:29.239Z,16.70
2023-04-18T13:02:58.033Z,16.70
2023-04-18T13:05:32.583Z,16.70
2023-04-18T13:08:15.274Z,16.80
2023-04-18T13:10:45.662Z,16.90
2023-04-18T13:13:13.982Z,17.00
2023-04-18T13:15:42.557Z,17.00
2023-04-18T13:18:10.717Z,17.00
2023-04-18T13:20:40.111Z,16.90
2023-04-18T13:23:08.100Z,16.90
2023-04-18T13:25:36.112Z,16.80
2023-04-18T13:28:04.069Z,16.80
2023-04-18T13:30:32.119Z,16.70
2023-04-18T13:33:00.183Z,16.70
2023-04-18T13:35:28.262Z,16.80
2023-04-18T13:37:57.603Z,16.90
2023-04-18T13:40:25.656Z,16.90
2023-04-18T13:42:53.721Z,16.80
2023-04-18T13:45:21.723Z,16.70
2023-04-18T13:47:49.895Z,16.70
2023-04-18T13:50:17.874Z,16.60
2023-04-18T13:52:48.040Z,16.60
2023-04-18T13:55:17.928Z,16.70
2023-04-18T13:57:45.915Z,16.80
2023-04-18T14:00:15.285Z,16.80
2023-04-18T14:02:43.500Z,16.90
2023-04-18T14:05:11.800Z,16.90
2023-04-18T14:07:40.143Z,16.90
2023-04-18T14:10:09.027Z,16.90
2023-04-18T14:12:39.850Z,16.90
2023-04-18T14:15:09.299Z,17.00
2023-04-18T14:17:37.425Z,17.00
2023-04-18T14:20:06.648Z,17.00
2023-04-18T14:22:34.805Z,17.00
2023-04-18T14:25:02.828Z,17.00
2023-04-18T14:27:30.802Z,17.00
2023-04-18T14:30:00.296Z,16.90
2023-04-18T14:32:28.301Z,16.90
2023-04-18T14:34:56.473Z,16.90
2023-04-18T14:37:24.570Z,16.90
2023-04-18T14:39:52.611Z,16.90
2023-04-18T14:42:20.918Z,16.90
2023-04-18T14:44:48.871Z,16.80
2023-04-18T14:47:18.251Z,16.80
2023-04-18T14:49:46.259Z,16.80
2023-04-18T14:52:14.585Z,16.80
2023-04-18T14:54:43.952Z,16.80
2023-04-18T14:57:12.902Z,16.70
2023-04-18T14:59:40.877Z,16.70
2023-04-18T15:02:08.928Z,16.60
2023-04-18T15:04:38.520Z,16.50
2023-04-18T15:07:06.866Z,16.40
2023-04-18T15:09:37.326Z,16.40
2023-04-18T15:12:06.276Z,16.40
2023-04-18T15:14:34.934Z,16.30
2023-04-18T15:17:04.430Z,16.30
2023-04-18T15:19:32.755Z,16.20
2023-04-18T15:22:05.418Z,16.20
2023-04-18T15:24:33.606Z,16.20
2023-04-18T15:27:01.922Z,16.20
2023-04-18T15:29:29.965Z,16.10
2023-04-18T15:31:58.082Z,16.10
2023-04-18T15:34:26.371Z,16.00
2023-04-18T15:36:56.001Z,16.00
2023-04-18T15:39:25.335Z,16.00
2023-04-18T15:41:54.693Z,16.00
2023-04-18T15:44:22.969Z,16.00
2023-04-18T15:46:51.759Z,16.00
2023-04-18T15:49:19.817Z,16.00
2023-04-18T15:51:47.748Z,16.00
2023-04-18T15:54:15.933Z,16.00
2023-04-18T15:56:45.756Z,16.00
2023-04-18T15:59:14.026Z,16.00
2023-04-18T16:01:44.451Z,16.00
2023-04-18T16:04:14.192Z,16.00
2023-04-18T16:06:42.563Z,16.00
2023-04-18T16:09:10.751Z,15.90
2023-04-18T16:11:38.703Z,15.90
2023-04-18T16:14:08.151Z,15.80
2023-04-18T16:16:36.230Z,15.80
2023-04-18T16:19:05.461Z,15.70
2023-04-18T16:21:33.791Z,15.70
2023-04-18T16:24:02.259Z,15.60
2023-04-18T16:26:30.340Z,15.50
2023-04-18T16:28:58.338Z,15.50
2023-04-18T16:31:27.769Z,15.40
2023-04-18T16:33:56.014Z,15.40
2023-04-18T16:36:24.149Z,15.30
2023-04-18T16:38:52.188Z,15.20
2023-04-18T16:41:20.173Z,15.20
2023-04-18T16:43:48.168Z,15.20
2023-04-18T16:46:16.381Z,15.20
2023-04-18T16:48:45.799Z,15.20
2023-04-18T16:51:14.227Z,15.20
2023-04-18T16:53:42.358Z,15.20
2023-04-18T16:56:10.306Z,15.20
2023-04-18T16:58:38.356Z,15.20
2023-04-18T17:01:08.114Z,15.10
2023-04-18T17:03:36.586Z,15.10
2023-04-18T17:06:06.960Z,15.00
2023-04-18T17:08:37.321Z,15.00
2023-04-18T17:11:05.589Z,15.00
2023-04-18T17:13:33.613Z,14.90
2023-04-18T17:16:01.893Z,14.80
2023-04-18T17:18:29.996Z,14.80
2023-04-18T17:20:58.015Z,14.70
2023-04-18T17:23:27.404Z,14.70
2023-04-18T17:25:55.691Z,14.60
2023-04-18T17:28:25.213Z,14.40
2023-04-18T17:30:53.250Z,14.40
2023-04-18T17:33:21.266Z,14.30
2023-04-18T17:35:50.378Z,14.30
2023-04-18T17:38:18.378Z,14.20
2023-04-18T17:40:47.859Z,14.20
2023-04-18T17:43:16.381Z,14.20
2023-04-18T17:45:44.414Z,14.20
2023-04-18T17:48:12.545Z,14.10
2023-04-18T17:50:41.391Z,14.10
2023-04-18T17:53:09.360Z,14.00
2023-04-18T17:55:37.442Z,14.00
2023-04-18T17:58:06.878Z,14.00
2023-04-18T18:00:34.872Z,13.90
2023-04-18T18:03:03.492Z,13.80
2023-04-18T18:05:31.881Z,13.70
2023-04-18T18:08:01.109Z,13.70
2023-04-18T18:10:29.622Z,13.60
2023-04-18T18:12:57.626Z,13.50
2023-04-18T18:15:27.071Z,13.50
2023-04-18T18:17:55.762Z,13.40
2023-04-18T18:20:23.989Z,13.40
2023-04-18T18:22:52.144Z,13.40
2023-04-18T18:25:20.800Z,13.40
2023-04-18T18:27:49.422Z,13.30
2023-04-18T18:30:17.559Z,13.20
2023-04-18T18:32:46.955Z,13.20
2023-04-18T18:35:15.064Z,13.20
2023-04-18T18:37:43.084Z,13.20
2023-04-18T18:40:11.871Z,13.20
2023-04-18T18:42:40.073Z,13.10
2023-04-18T18:45:09.431Z,13.10
2023-04-18T18:47:39.585Z,13.00
2023-04-18T18:50:10.211Z,13.00
2023-04-18T18:52:40.727Z,12.90
2023-04-18T18:55:11.608Z,12.80
2023-04-18T18:57:39.684Z,12.80
2023-04-18T19:00:10.811Z,12.70
2023-04-18T19:02:39.180Z,12.60
2023-04-18T19:05:09.857Z,12.50
2023-04-18T19:07:37.850Z,12.50
2023-04-18T19:10:07.900Z,12.40
2023-04-18T19:12:36.302Z,12.40
2023-04-18T19:15:04.530Z,12.40
2023-04-18T19:17:32.521Z,12.30
2023-04-18T19:20:01.614Z,12.20
2023-04-18T19:22:31.239Z,12.20
2023-04-18T19:25:00.664Z,12.20
2023-04-18T19:27:28.701Z,12.10
2023-04-18T19:29:56.761Z,12.10
2023-04-18T19:32:24.735Z,12.10
2023-04-18T19:34:52.739Z,12.10
2023-04-18T19:37:20.767Z,12.00
2023-04-18T19:39:50.064Z,12.00
2023-04-18T19:42:18.019Z,12.00
2023-04-18T19:44:46.031Z,11.90
2023-04-18T19:47:14.063Z,11.90
2023-04-18T19:49:42.022Z,11.80
2023-04-18T19:52:09.967Z,11.80
2023-04-18T19:54:37.960Z,11.70
2023-04-18T19:57:07.373Z,11.70
2023-04-18T19:59:35.379Z,11.60
2023-04-18T20:02:06.023Z,11.50
2023-04-18T20:04:36.531Z,11.40
2023-04-18T20:07:04.829Z,11.40
2023-04-18T20:09:32.816Z,11.30
2023-04-18T20:12:01.909Z,11.20
2023-04-18T20:14:31.424Z,11.10
2023-04-18T20:16:59.376Z,11.10
2023-04-18T20:19:29.582Z,11.00
2023-04-18T20:21:57.682Z,11.00
2023-04-18T20:24:28.138Z,10.90
2023-04-18T20:26:57.168Z,10.90
2023-04-18T20:29:25.365Z,10.90
2023-04-18T20:31:54.774Z,10.90
2023-04-18T20:34:22.771Z,10.80
2023-04-18T20:36:52.431Z,10.80
2023-04-18T20:39:20.509Z,10.80
2023-04-18T20:41:51.318Z,10.70
2023-04-18T20:44:20.891Z,10.70
2023-04-18T20:46:49.312Z,10.60
2023-04-18T20:49:18.678Z,10.50
2023-04-18T20:51:46.849Z,10.50
2023-04-18T20:54:15.323Z,10.40
2023-04-18T20:56:43.561Z,10.40
2023-04-18T20:59:11.644Z,10.30
2023-04-18T21:01:39.630Z,10.30
2023-04-18T21:04:07.913Z,10.30
2023-04-18T21:06:37.572Z,10.30
2023-04-18T21:09:06.521Z,10.20
2023-04-18T21:11:34.722Z,10.10
2023-04-18T21:14:03.823Z,10.10
2023-04-18T21:16:31.908Z,10.00
2023-04-18T21:18:59.970Z,10.00
2023-04-18T21:21:27.933Z,10.00
2023-04-18T21:23:57.337Z,9.90
2023-04-18T21:26:25.462Z,9.90
2023-04-18T21:28:56.576Z,9.90
2023-04-18T21:31:25.002Z,9.80
2023-04-18T21:33:54.148Z,9.70
2023-04-18T21:36:22.180Z,9.70
2023-04-18T21:38:53.142Z,9.70
2023-04-18T21:41:22.886Z,9.60
2023-04-18T21:43:51.163Z,9.60
2023-04-18T21:46:19.875Z,9.60
2023-04-18T21:48:48.543Z,9.60
2023-04-18T21:51:17.927Z,9.60
2023-04-18T21:53:46.333Z,9.50
2023-04-18T21:56:14.937Z,9.40
2023-04-18T21:58:44.244Z,9.30
2023-04-18T22:01:12.288Z,9.30
2023-04-18T22:03:40.588Z,9.30
2023-04-18T22:06:08.722Z,9.30
2023-04-18T22:08:36.747Z,9.30
2023-04-18T22:11:05.121Z,9.30
2023-04-18T22:13:35.269Z,9.20
2023-04-18T22:16:05.232Z,9.20
2023-04-18T22:18:34.396Z,9.00
2023-04-18T22:21:03.261Z,9.00
2023-04-18T22:23:31.922Z,9.00
2023-04-18T22:25:59.918Z,9.00
2023-04-18T22:28:28.846Z,9.00
2023-04-18T22:30:56.989Z,8.90
2023-04-18T22:33:26.465Z,8.90
2023-04-18T22:35:55.556Z,8.90
2023-04-18T22:38:23.612Z,8.90
2023-04-18T22:40:51.624Z,8.90
2023-04-18T22:43:22.718Z,8.90
2023-04-18T22:45:51.150Z,8.80
2023-04-18T22:48:19.385Z,8.80
2023-04-18T22:50:49.894Z,8.80
2023-04-18T22:53:18.178Z,8.80
2023-04-18T22:55:46.598Z,8.80
2023-04-18T22:58:14.656Z,8.80
2023-04-18T23:00:42.714Z,8.80
2023-04-18T23:03:10.854Z,8.90
2023-04-18T23:05:38.971Z,8.90
2023-04-18T23:08:08.336Z,8.90
2023-04-18T23:10:36.562Z,8.90
2023-04-18T23:13:04.590Z,8.90
2023-04-18T23:15:32.676Z,8.80
2023-04-18T23:18:00.786Z,8.80
2023-04-18T23:20:28.883Z,8.80
2023-04-18T23:22:56.920Z,8.80
2023-04-18T23:25:26.270Z,8.70
2023-04-18T23:27:54.263Z,8.70
2023-04-18T23:30:22.269Z,8.70
2023-04-18T23:32:50.280Z,8.70
2023-04-18T23:35:18.671Z,8.70
2023-04-18T23:37:46.605Z,8.70
2023-04-18T23:40:14.644Z,8.70
2023-04-18T23:42:43.970Z,8.70
2023-04-18T23:45:12.735Z,8.70
2023-04-18T23:47:40.737Z,8.70
2023-04-18T23:50:10.273Z,8.70
2023-04-18T23:52:38.685Z,8.70
2023-04-18T23:55:07.521Z,8.70
2023-04-18T23:57:35.586Z,8.80
